Henrique Nardo

Chief Scout - Bragantino
20 Nov 2027
Saturday
Process

Personality

Adaptability (15) Ambition (12) Controversy (18) Loyalty (7) Pressure (10) Professionalism (7) Sportsmanship (8) Temperament (14)

Profile

Coaching Style Democratic
License National B
Determination 9
Man Management 14
Motivating 10
Discipline 11
Job Satisfaction
100%
Fatigue
0%
Role Chief Scout
Wage 76.4K p/w
Contract 14.03.2030

Performance

Behaviour Good
Training Effectiveness
45%
Player Development
35%
Injury Prevention
65%
Tactical Implementation
45%

Recent Events

Attended a recruitment meeting now
Recommended a transfer target now
Recommended a transfer target now
Recommended a transfer target now
Recommended a transfer target now
Recommended a transfer target now
Recommended a transfer target now
Attended a recruitment meeting 7d ago

Currently Monitoring

225
Player Club Status Ability Confidence Watched Last Observed Latest Vote
Gabriel Taliari Juventude Active 118 / 120 65% 1 05.07.2027 Approve
Francesco D'Alterio Ternana Active 100 / 107 40% 2 30.06.2027 -
Murphy Cooper Plymouth Argyle Active 114 / 122 40% 2 30.06.2027 -
Nathan Bishop AFC Wimbledon Active 102 / 108 40% 1 30.06.2027 -
Léo Scienza Southampton Active 150 / 143 40% 3 21.06.2027 -
Thiago Almada Fiorentina Active 140 / 155 40% 4 21.06.2027 -
Martinelli Palmeiras Active 138 / 140 66% 1 21.06.2027 Approve
Marcos Victor Bahia Active 114 / 120 65% 1 21.06.2027 Approve
Loum Tchaouna Coventry City Active 132 / 146 40% 1 21.06.2027 -
Dango Ouattara Brentford Active 142 / 144 40% 5 14.06.2027 -
Gianluca Scamacca Atalanta Active 161 / 155 40% 5 14.06.2027 -
Eddie Nketiah Crystal Palace Active 153 / 144 40% 1 14.06.2027 -
Marcos Paulo Juventude Lost 116 / 124 65% 1 07.06.2027 -
Hugo Corinthians Lost 129 / 114 65% 1 03.06.2027 -
Gonzalo Fulham Lost 144 / 150 40% 2 01.06.2027 -
Brennan Johnson Everton Active 136 / 149 40% 2 01.06.2027 -
Yuri Alberto Corinthians Active 140 / 141 67% 1 01.06.2027 Approve
Paulinho Hamburger SV Active 140 / 140 68% 1 01.06.2027 Approve
Marcos Antonio Sport Recife Active 138 / 138 68% 1 01.06.2027 Approve
Joe Gelhardt Hull City Active 122 / 129 40% 2 31.05.2027 -
Zian Flemming Ipswich Town Active 131 / 125 40% 2 31.05.2027 -
João Félix Aston Villa Active 161 / 158 40% 1 31.05.2027 -
Dávid Strelec Middlesbrough Active 150 / 131 40% 4 30.05.2027 -
Igor Jesus Nottingham Forest Active 152 / 147 40% 6 28.05.2027 -
Oli McBurnie Hull City Active 128 / 138 40% 5 27.05.2027 -
Aune Heggebø West Bromwich Albion Active 134 / 121 40% 5 27.05.2027 -
Santiago Castro AS Roma Active 143 / 151 40% 2 27.05.2027 -
Lautaro Martínez Inter Active 170 / 175 40% 5 26.05.2027 -
Kevin Fulham Active 155 / 155 40% 1 26.05.2027 -
Ismaïla Sarr Crystal Palace Active 142 / 147 40% 5 24.05.2027 -
Tommy Conway Middlesbrough Active 122 / 123 40% 1 23.05.2027 -
Liam Delap Nottingham Forest Active 139 / 141 40% 2 22.05.2027 -
Anthony Patterson Wrexham Active 132 / 132 40% 3 20.05.2027 -
Radek Vítek Middlesbrough Active 131 / 141 40% 3 20.05.2027 -
Dominic Solanke Tottenham Active 150 / 146 40% 2 20.05.2027 -
Fathy Tarek Masr El Makasa Active 117 / 113 40% 1 20.05.2027 -
George Hirst Stoke City Active 144 / 137 40% 12 18.05.2027 -
Bento Lokomotiv Moscow Active 149 / 140 40% 10 17.05.2027 -
Luca Gemello Perugia Active 111 / 105 40% 2 17.05.2027 -
Thiago Brentford Active 149 / 150 40% 2 17.05.2027 -
Nicolas Jackson Aston Villa Active 143 / 146 40% 3 14.05.2027 -
Christian Pulisic AC Milan Active 156 / 155 40% 2 14.05.2027 -
Kevin Schade Brentford Active 161 / 153 40% 4 11.05.2027 -
Igor Burnley Active 142 / 135 40% 5 08.05.2027 -
Federico Chiesa Tottenham Active 146 / 161 40% 5 08.05.2027 -
Dodo Fiorentina Active 151 / 149 40% 2 08.05.2027 -
Bitello Empoli Active 146 / 138 40% 2 06.05.2027 -
Enzo Barrenechea Burnley Active 158 / 147 40% 1 06.05.2027 -
Mohammed Kudus Tottenham Active 148 / 159 40% 1 05.05.2027 -
Rodrigo Muniz Fulham Active 141 / 139 40% 1 05.05.2027 -
Koki Saito Queens Park Rangers Active 128 / 123 40% 1 02.05.2027 -
Marco Carnesecchi Torino Active 151 / 163 40% 1 01.05.2027 -
Williams Mahlangu SuperSport United Active 122 / 112 40% 1 01.05.2027 -
Arthur Beroe Active 111 / 116 40% 4 29.04.2027 -
Michael Cooper Sheffield United Active 140 / 124 40% 2 29.04.2027 -
Yousef Salech Cardiff City Active 116 / 124 40% 3 29.04.2027 -
Taiwo Awoniyi Coventry City Active 136 / 134 40% 2 29.04.2027 -
Fábio Carvalho Brentford Active 130 / 139 40% 1 26.04.2027 -
Khvicha Kvaratskhelia Inter Active 159 / 170 40% 2 25.04.2027 -
James Maddison Tottenham Active 157 / 162 40% 1 25.04.2027 -
Finn Azaz Southampton Active 143 / 121 40% 1 25.04.2027 -
Helinho Toluca Active 148 / 132 40% 1 21.04.2027 -
Jeon Jin-Woo Sheffield Wednesday Active 127 / 136 40% 1 20.04.2027 -
Rafael Leão Galatasaray Active 172 / 169 40% 1 18.04.2027 -
Tammy Abraham Aston Villa Active 140 / 143 40% 1 17.04.2027 -
Mateo Pellegrino Fiorentina Active 133 / 137 40% 5 16.04.2027 -
Leandro Trossard Besiktas Active 163 / 151 40% 8 15.04.2027 -
Julio Enciso Ipswich Town Active 146 / 145 40% 1 15.04.2027 -
Malcom Al Jazira Lost 160 / 142 40% 4 14.04.2027 -
Sorba Thomas Stoke City Active 123 / 133 40% 1 14.04.2027 -
Galeno Al-Ahli Active 143 / 145 40% 2 12.04.2027 -
John McGinn Aston Villa Active 156 / 145 40% 1 12.04.2027 -
Rodrigo De Paul Chelsea Active 163 / 148 40% 1 12.04.2027 -
Vitinho Internacional Active 136 / 132 40% 9 10.04.2027 -
Sam Surridge Leeds United Active 130 / 139 40% 1 09.04.2027 -
Keinan Davis Udinese Active 128 / 130 40% 1 09.04.2027 -
Hwang Hee-Chan Wolverhampton Active 141 / 129 40% 2 08.04.2027 -
Youssef En-Nesyri Al-Ittihad Active 134 / 147 40% 5 07.04.2027 -
Marquinhos Spartak Moscow Active 141 / 130 40% 3 07.04.2027 -
Pedrinho Shakhtar Active 136 / 141 40% 2 07.04.2027 -
Jack Rudoni Coventry City Active 140 / 140 40% 1 07.04.2027 -
Kostantis Tzolakis Hull City Active 155 / 151 40% 5 06.04.2027 -
Samuel Lino Flamengo Active 135 / 137 40% 7 06.04.2027 -
Solly March Brighton Active 149 / 148 40% 2 06.04.2027 -
Pablo Felipe West Ham United Active 135 / 134 40% 2 04.04.2027 -
Mads Hermansen West Ham United Active 140 / 136 40% 2 03.04.2027 -
Max Johnston Derby County Active 123 / 128 40% 1 02.04.2027 -
Serginho Al Wasl Active 118 / 137 40% 1 02.04.2027 -
Mateo Cassierra Atlético Mineiro Active 139 / 133 40% 6 31.03.2027 -
Yanis Begraoui Estoril Praia Active 145 / 130 40% 9 28.03.2027 -
Domagoj Drožđek Tractor Active 140 / 125 40% 3 28.03.2027 -
Rafik Guitane Estoril Praia Active 121 / 133 40% 1 28.03.2027 -
Francisco Moura Penafiel Active 132 / 136 40% 1 27.03.2027 -
Chuchu Ramírez Nacional Active 139 / 134 40% 6 25.03.2027 -
William Gomes Porto Active 140 / 155 40% 7 25.03.2027 -
João Palhinha Benfica Active 158 / 156 40% 3 22.03.2027 -
Mario Dorgeles Braga Active 132 / 144 40% 2 22.03.2027 -
Alexis Vega Famalicao Active 146 / 145 40% 9 20.03.2027 -
Nuno Santos Sporting CP Active 140 / 129 40% 3 19.03.2027 -
André Wolverhampton Active 140 / 145 40% 1 17.03.2027 -
Maximiliano Araújo Sporting CP Active 154 / 145 40% 2 15.03.2027 -
Pepê Porto Lost 137 / 141 40% 2 15.03.2027 -
Alberto Costa Porto Active 151 / 141 40% 2 15.03.2027 -
Yoane Wissa Newcastle United Active 152 / 134 40% 2 13.03.2027 -
Georges-Kévin Nkoudou Al-Diriyah Active 124 / 124 40% 2 12.03.2027 -
Gabriel Silva Braga Active 131 / 137 40% 1 12.03.2027 -
Demarai Gray Birmingham Active 126 / 125 40% 1 12.03.2027 -
Dinis Pinto Moreirense Active 123 / 127 40% 2 11.03.2027 -
Christian Krasnodar Active 131 / 129 40% 6 06.03.2027 -
Gianluca Prestianni Benfica Active 131 / 133 40% 7 06.03.2027 -
Roberto Fernández Braga Active 146 / 148 40% 8 04.03.2027 -
Iqraam Rayners Mamelodi Sundowns Active 135 / 132 40% 2 04.03.2027 -
Arthur Cabral Botafogo Active 136 / 134 40% 4 02.03.2027 -
Lukas Jensen Millwall Active 121 / 127 40% 2 27.02.2027 -
Marquinhos APOEL Active 127 / 123 40% 1 25.02.2027 -
Jonas Wind Braga Active 145 / 137 40% 8 23.02.2027 -
Carlos Vinícius Grêmio Active 140 / 132 40% 6 21.02.2027 -
Tomáš Chorý Spartak Moscow Active 130 / 130 40% 2 21.02.2027 -
Steven Bergwijn Al-Ittihad Active 157 / 153 40% 3 18.02.2027 -
Ivan Toney Al-Ahli Active 159 / 142 40% 1 16.02.2027 -
Francis Amuzu Grêmio Active 140 / 123 40% 4 15.02.2027 -
Clayton Olympiacos Active 145 / 126 40% 1 08.02.2027 -
Juan Diego Castillo Vitoria Guimaraes Active 113 / 128 40% 4 07.02.2027 -
Josh Keeley Luton Town Active 117 / 131 40% 1 07.02.2027 -
Cezary Miszta Rio Ave Active 139 / 138 40% 3 01.02.2027 -
Fredrik Aursnes Benfica Active 145 / 141 40% 4 01.02.2027 -
Fran Vieites Exeter City Active 124 / 111 40% 1 01.02.2027 -
Enzo Loiodice KAA Gent Active 123 / 120 40% 3 29.01.2027 -
Jérémy Livolant Casa Pia Active 125 / 121 40% 1 26.01.2027 -
Juninho Pumas UNAM Lost 130 / 124 40% 3 22.01.2027 -
Nicolás Ibáñez Cruz Azul Active 121 / 138 40% 2 22.01.2027 -
Masoud Ebrahimi Sepahan Active 118 / 123 40% 1 21.01.2027 -
Diber Cambindo Leon Active 125 / 136 40% 1 14.01.2027 -
Kerem Aktürkoğlu Fenerbahce Active 135 / 146 40% 1 11.01.2027 -
Juan Dinenno Pumas UNAM Active 130 / 123 40% 1 09.01.2027 -
Rodrigo Castillo Fluminense Active 122 / 131 40% 2 08.01.2027 -
Ángel Correa River Plate Active 141 / 138 40% 4 29.12.2026 -
Luis Sinisterra Cruzeiro Active 140 / 142 40% 2 27.12.2026 -
Santi García Gil Vicente Active 122 / 130 40% 2 26.12.2026 -
Matheus Gonçalves Al-Ahli Active 127 / 129 40% 1 26.12.2026 -
Jhon Jhon Zenit Active 136 / 134 40% 3 22.12.2026 -
Tetê Grêmio Active 143 / 131 40% 2 22.12.2026 -
Luiz Araújo Flamengo Active 138 / 126 65% 1 21.12.2026 Approve
Cristian Medina Botafogo Active 122 / 136 40% 1 20.12.2026 -
Geny Sporting CP Active 132 / 152 40% 2 18.12.2026 -
Welington Southampton Active 118 / 130 40% 3 18.12.2026 -
Rodrigo Pinheiro Famalicao Active 138 / 125 40% 1 14.12.2026 -
Oussama Idrissi Ferencvaros Active 131 / 130 40% 1 30.11.2026 -
Hugo Souza Corinthians Active 141 / 133 40% 8 29.11.2026 -
Patrick Sequeira Casa Pia Active 116 / 118 40% 3 27.11.2026 -
Grégoire Coudert Burnley Active 118 / 128 40% 4 27.11.2026 -
Samuel Soares Benfica Active 125 / 136 40% 6 26.11.2026 -
Luís Henrique Inter Active 140 / 141 40% 1 26.11.2026 -
Bernardo Fontes Braga Active 125 / 123 40% 5 25.11.2026 -
Antonio Gomis Vizela Active 118 / 129 40% 6 25.11.2026 -
Jhon Arias Palmeiras Active 131 / 137 40% 1 24.11.2026 -
Christian Joel Sánchez Leiria Active 108 / 110 40% 1 22.11.2026 -
Felipe Zenobio Tigre Active 120 / 124 40% 3 21.11.2026 -
James Trafford Leeds United Active 132 / 145 40% 3 21.11.2026 -
Lautaro Amadé Defensa y Justicia Active 122 / 113 40% 2 21.11.2026 -
Jefferson Savarino Fluminense Active 131 / 136 40% 1 20.11.2026 Needs More Info
Lazar Carević Famalicao Active 131 / 130 40% 6 15.11.2026 -
Thiago Couto São Paulo Active 120 / 118 40% 6 15.11.2026 -
Andrew Flamengo Active 133 / 126 40% 5 14.11.2026 -
Đorđe Petrović Bournemouth Active 139 / 142 40% 1 14.11.2026 -
Alan Velasco Boca Juniors Active 127 / 129 40% 1 14.11.2026 -
Nicolás Sumavil Platense Active 123 / 118 40% 5 10.11.2026 -
Adriel Torreense Active 121 / 120 40% 6 08.11.2026 -
Gérson Cruzeiro Active 133 / 142 40% 1 06.11.2026 -
Evander FC Cincinnati Active 136 / 131 40% 1 03.11.2026 -
Matheus Mendes Alverca Active 118 / 121 40% 4 01.11.2026 -
Gabriel Brazão Santos Active 132 / 138 40% 7 29.10.2026 -
Felipe Parra Stade Brestois Active 115 / 119 40% 3 29.10.2026 -
Dodi Lukébakio Benfica Active 151 / 140 40% 2 28.10.2026 -
Everton Cebolinha Farense Active 117 / 121 40% 2 28.10.2026 -
Mauro Júnior PSV Active 154 / 144 40% 1 28.10.2026 -
Brandon Austin Feyenoord Active 122 / 131 40% 1 25.10.2026 -
Ennio van der Gouw Rio Ave Active 111 / 111 40% 2 24.10.2026 -
Alfonso Pastor Maritimo Active 99 / 113 40% 2 23.10.2026 -
Gonzalo Crettaz NEC Active 120 / 133 40% 1 23.10.2026 -
Talles Magno New York City Active 133 / 139 40% 3 22.10.2026 -
Matías Contrera Northampton Town Active 110 / 107 40% 2 22.10.2026 -
Mathis Jangeal Famalicao Active 99 / 105 40% 1 22.10.2026 -
Léo Jacó Santa Clara Active 97 / 95 40% 1 19.10.2026 -
Gustavo Silva Vitoria Guimaraes Active 137 / 121 40% 1 17.10.2026 -
Pablo Fernández Leiria Active 100 / 112 40% 1 17.10.2026 -
Dilan Godoy Vélez Active 108 / 123 40% 2 16.10.2026 -
Agustín Ruberto River Plate Active 111 / 131 40% 2 15.10.2026 -
Mathys Tel Stade Rennais Active 149 / 139 40% 1 15.10.2026 -
Mauro Silveira Junior Active 121 / 114 40% 3 10.10.2026 -
Carl Rushworth Coventry City Active 140 / 133 40% 3 07.10.2026 -
Iván Angulo Orlando City Active 117 / 122 40% 1 05.10.2026 -
Neymar Santos Active 138 / 151 40% 1 01.10.2026 -
Figueiredo Alverca Active 116 / 130 40% 1 01.10.2026 -
Heung-Min Son Los Angeles Football Club Active 148 / 146 40% 1 30.09.2026 -
Hamilton Active 107 / 104 40% 1 30.09.2026 -
Juan Muñoz Leiria Active 127 / 118 40% 1 29.09.2026 -
Tiago Silva Oliveirense Active 97 / 118 40% 4 27.09.2026 -
Tomás Durso Atlético Tucumán Active 117 / 125 40% 1 24.09.2026 -
Matías Fernández-Pardo Newcastle United Active 149 / 148 40% 1 23.09.2026 -
Deivid Washington RC Strasbourg Active 102 / 126 40% 1 23.09.2026 -
Evidence Billiat Ajax Cape Town Active 110 / 104 40% 1 23.09.2026 -
Sebastián Meza Huracán Active 124 / 124 40% 1 22.09.2026 -
Victor Froholdt Porto Active 136 / 149 40% 1 20.09.2026 -
Matheus Nascimento Houston Dynamo Active 127 / 115 40% 1 18.09.2026 -
Jair Silva Leiria Active 99 / 116 40% 1 18.09.2026 -
Carlos Miguel Palmeiras Active 130 / 127 40% 1 16.09.2026 -
João Valido Chaves Active 97 / 100 40% 3 11.09.2026 -
Yuri Tanque Criciuma Active 120 / 119 40% 1 11.09.2026 -
Rafael Navarro St. Louis CITY SC Active 139 / 122 40% 2 09.09.2026 -
Luis Suárez PSV Active 164 / 163 40% 2 07.09.2026 -
Sindre Walle Egeli Nottingham Forest Active 133 / 136 40% 1 07.09.2026 -
Luciano Jachfe Nueva Chicago Active 113 / 113 40% 4 04.09.2026 -
Luka Gavran Toronto FC Active 106 / 106 40% 1 03.09.2026 -
Esteban Glellel Quilmes Active 114 / 110 40% 1 02.09.2026 -
Juan Moreno La Luz Active 115 / 119 40% 2 01.09.2026 -
Enzo Vázquez Central Norte Active 116 / 104 40% 1 01.09.2026 -
João Gonçalves Coventry City Active 98 / 100 40% 1 30.08.2026 -
Lucão Gil Vicente Active 104 / 125 40% 3 17.08.2026 -
Federico Losas Chacarita Juniors Active 104 / 108 40% 1 10.08.2026 -
João Klauss LA Galaxy Active 126 / 131 40% 1 08.08.2026 -
Emersonn Ipswich Town Active 116 / 119 40% 1 08.08.2026 -
Guilherme Houston Dynamo Active 114 / 132 40% 1 08.08.2026 -
João Muniz Sporting CP Active 103 / 112 40% 1 03.08.2026 -
Lautaro Maldonado Instituto Active 116 / 107 40% 1 01.08.2026 -